sensor_id;sensor_type;location;lat;lon;timestamp;P1;durP1;ratioP1;P2;durP2;ratioP2
29168;SDS011;16219;42.864;23.360;2023-03-01T08:48:24;0.57;;;0.57;;
29168;SDS011;16219;42.864;23.360;2023-03-01T08:50:54;0.47;;;0.47;;
29168;SDS011;16219;42.864;23.360;2023-03-01T08:53:21;1.33;;;0.73;;
29168;SDS011;16219;42.864;23.360;2023-03-01T08:55:49;0.60;;;0.60;;
29168;SDS011;16219;42.864;23.360;2023-03-01T08:58:16;0.60;;;0.60;;
29168;SDS011;16219;42.864;23.360;2023-03-01T09:00:43;0.20;;;0.20;;
29168;SDS011;16219;42.864;23.360;2023-03-01T09:03:11;0.80;;;0.50;;
29168;SDS011;16219;42.864;23.360;2023-03-01T09:05:40;0.65;;;0.65;;
29168;SDS011;16219;42.864;23.360;2023-03-01T09:08:07;0.43;;;0.43;;
29168;SDS011;16219;42.864;23.360;2023-03-01T09:10:37;0.75;;;0.55;;
29168;SDS011;16219;42.864;23.360;2023-03-01T09:13:05;0.52;;;0.52;;
29168;SDS011;16219;42.864;23.360;2023-03-01T09:15:32;0.40;;;0.40;;
29168;SDS011;16219;42.864;23.360;2023-03-01T09:18:00;0.40;;;0.40;;
29168;SDS011;16219;42.864;23.360;2023-03-01T09:20:27;0.30;;;0.30;;
29168;SDS011;16219;42.864;23.360;2023-03-01T09:22:57;0.77;;;0.63;;
29168;SDS011;16219;42.864;23.360;2023-03-01T09:41:49;0.40;;;0.40;;
29168;SDS011;16219;42.864;23.360;2023-03-01T09:44:27;1.00;;;0.75;;
29168;SDS011;16219;42.864;23.360;2023-03-01T09:47:00;0.45;;;0.45;;
29168;SDS011;16219;42.864;23.360;2023-03-01T09:49:28;0.35;;;0.35;;
29168;SDS011;16219;42.864;23.360;2023-03-01T09:52:00;0.32;;;0.32;;
29168;SDS011;16219;42.864;23.360;2023-03-01T09:54:31;0.60;;;0.47;;
29168;SDS011;16219;42.864;23.360;2023-03-01T09:57:03;0.57;;;0.50;;
29168;SDS011;16219;42.864;23.360;2023-03-01T09:59:39;0.75;;;0.75;;
29168;SDS011;16219;42.864;23.360;2023-03-01T10:02:24;0.43;;;0.43;;
29168;SDS011;16219;42.864;23.360;2023-03-01T10:04:59;0.35;;;0.35;;
29168;SDS011;16219;42.864;23.360;2023-03-01T10:07:39;0.50;;;0.50;;
29168;SDS011;16219;42.864;23.360;2023-03-01T10:10:16;0.63;;;0.63;;
29168;SDS011;16219;42.864;23.360;2023-03-01T10:12:54;0.55;;;0.55;;
29168;SDS011;16219;42.864;23.360;2023-03-01T10:15:25;0.30;;;0.30;;
29168;SDS011;16219;42.864;23.360;2023-03-01T10:18:01;1.23;;;1.13;;
29168;SDS011;16219;42.864;23.360;2023-03-01T10:20:36;0.43;;;0.43;;
29168;SDS011;16219;42.864;23.360;2023-03-01T10:23:11;0.57;;;0.57;;
29168;SDS011;16219;42.864;23.360;2023-03-01T10:25:44;1.30;;;1.05;;
29168;SDS011;16219;42.864;23.360;2023-03-01T10:28:24;0.30;;;0.30;;
29168;SDS011;16219;42.864;23.360;2023-03-01T10:30:53;0.30;;;0.30;;
29168;SDS011;16219;42.864;23.360;2023-03-01T10:33:21;1.48;;;1.38;;
29168;SDS011;16219;42.864;23.360;2023-03-01T10:35:52;1.00;;;1.00;;
29168;SDS011;16219;42.864;23.360;2023-03-01T10:38:20;0.50;;;0.50;;
29168;SDS011;16219;42.864;23.360;2023-03-01T10:40:52;0.47;;;0.47;;
29168;SDS011;16219;42.864;23.360;2023-03-01T10:43:23;0.40;;;0.40;;
29168;SDS011;16219;42.864;23.360;2023-03-01T10:45:52;2.45;;;1.10;;
29168;SDS011;16219;42.864;23.360;2023-03-01T10:48:21;0.50;;;0.50;;
29168;SDS011;16219;42.864;23.360;2023-03-01T10:51:03;0.60;;;0.60;;
29168;SDS011;16219;42.864;23.360;2023-03-01T10:53:33;0.40;;;0.40;;
29168;SDS011;16219;42.864;23.360;2023-03-01T10:56:03;1.35;;;0.63;;
29168;SDS011;16219;42.864;23.360;2023-03-01T10:58:34;0.20;;;0.20;;
29168;SDS011;16219;42.864;23.360;2023-03-01T11:01:04;0.50;;;0.50;;
29168;SDS011;16219;42.864;23.360;2023-03-01T11:03:33;0.77;;;0.77;;
29168;SDS011;16219;42.864;23.360;2023-03-01T11:06:04;0.50;;;0.43;;
29168;SDS011;16219;42.864;23.360;2023-03-01T11:08:47;0.57;;;0.57;;
29168;SDS011;16219;42.864;23.360;2023-03-01T11:11:24;0.30;;;0.30;;
29168;SDS011;16219;42.864;23.360;2023-03-01T11:13:59;3.25;;;0.50;;
29168;SDS011;16219;42.864;23.360;2023-03-01T11:16:30;0.60;;;0.60;;
29168;SDS011;16219;42.864;23.360;2023-03-01T11:19:04;0.95;;;0.95;;
29168;SDS011;16219;42.864;23.360;2023-03-01T11:21:43;0.50;;;0.50;;
29168;SDS011;16219;42.864;23.360;2023-03-01T11:24:17;5.25;;;0.80;;
29168;SDS011;16219;42.864;23.360;2023-03-01T11:26:47;1.23;;;1.23;;
29168;SDS011;16219;42.864;23.360;2023-03-01T11:29:25;0.32;;;0.32;;
29168;SDS011;16219;42.864;23.360;2023-03-01T11:31:58;0.68;;;0.68;;
29168;SDS011;16219;42.864;23.360;2023-03-01T11:34:42;1.52;;;0.70;;
29168;SDS011;16219;42.864;23.360;2023-03-01T11:37:15;1.33;;;0.73;;
29168;SDS011;16219;42.864;23.360;2023-03-01T11:39:52;0.60;;;0.60;;
29168;SDS011;16219;42.864;23.360;2023-03-01T11:42:28;1.88;;;1.10;;
29168;SDS011;16219;42.864;23.360;2023-03-01T11:45:05;1.02;;;0.90;;
29168;SDS011;16219;42.864;23.360;2023-03-01T11:47:40;0.30;;;0.30;;
29168;SDS011;16219;42.864;23.360;2023-03-01T11:50:19;0.85;;;0.63;;
29168;SDS011;16219;42.864;23.360;2023-03-01T11:52:57;0.30;;;0.30;;
29168;SDS011;16219;42.864;23.360;2023-03-01T11:55:36;0.38;;;0.38;;
29168;SDS011;16219;42.864;23.360;2023-03-01T11:58:22;0.50;;;0.50;;
29168;SDS011;16219;42.864;23.360;2023-03-01T12:01:06;0.43;;;0.43;;
29168;SDS011;16219;42.864;23.360;2023-03-01T12:03:51;1.33;;;1.23;;
29168;SDS011;16219;42.864;23.360;2023-03-01T12:06:39;1.05;;;0.98;;
29168;SDS011;16219;42.864;23.360;2023-03-01T12:09:21;0.65;;;0.65;;
29168;SDS011;16219;42.864;23.360;2023-03-01T12:12:02;2.70;;;1.17;;
29168;SDS011;16219;42.864;23.360;2023-03-01T12:14:48;0.57;;;0.57;;
29168;SDS011;16219;42.864;23.360;2023-03-01T12:17:43;0.47;;;0.47;;
29168;SDS011;16219;42.864;23.360;2023-03-01T12:20:27;0.60;;;0.40;;
29168;SDS011;16219;42.864;23.360;2023-03-01T12:23:14;0.22;;;0.22;;
29168;SDS011;16219;42.864;23.360;2023-03-01T12:25:53;0.82;;;0.65;;
29168;SDS011;16219;42.864;23.360;2023-03-01T12:28:29;0.70;;;0.70;;
29168;SDS011;16219;42.864;23.360;2023-03-01T12:34:06;0.60;;;0.60;;
29168;SDS011;16219;42.864;23.360;2023-03-01T12:36:46;1.25;;;1.15;;
29168;SDS011;16219;42.864;23.360;2023-03-01T12:39:33;0.30;;;0.30;;
29168;SDS011;16219;42.864;23.360;2023-03-01T12:42:17;1.80;;;0.85;;
29168;SDS011;16219;42.864;23.360;2023-03-01T12:45:01;0.50;;;0.50;;
29168;SDS011;16219;42.864;23.360;2023-03-01T12:47:57;1.67;;;0.90;;
29168;SDS011;16219;42.864;23.360;2023-03-01T12:50:37;0.50;;;0.50;;
29168;SDS011;16219;42.864;23.360;2023-03-01T12:53:13;0.70;;;0.70;;
29168;SDS011;16219;42.864;23.360;2023-03-01T12:55:49;0.73;;;0.73;;
29168;SDS011;16219;42.864;23.360;2023-03-01T12:58:21;0.75;;;0.75;;
29168;SDS011;16219;42.864;23.360;2023-03-01T13:01:01;0.40;;;0.40;;
29168;SDS011;16219;42.864;23.360;2023-03-01T13:09:34;0.63;;;0.63;;
29168;SDS011;16219;42.864;23.360;2023-03-01T13:15:27;0.60;;;0.60;;
29168;SDS011;16219;42.864;23.360;2023-03-01T13:17:55;0.55;;;0.55;;
29168;SDS011;16219;42.864;23.360;2023-03-01T13:20:25;0.47;;;0.47;;
29168;SDS011;16219;42.864;23.360;2023-03-01T13:23:02;1.20;;;0.85;;
29168;SDS011;16219;42.864;23.360;2023-03-01T13:25:35;0.50;;;0.50;;
29168;SDS011;16219;42.864;23.360;2023-03-01T13:34:40;1.85;;;1.50;;
29168;SDS011;16219;42.864;23.360;2023-03-01T13:37:09;0.73;;;0.73;;
29168;SDS011;16219;42.864;23.360;2023-03-01T13:39:45;0.43;;;0.43;;
29168;SDS011;16219;42.864;23.360;2023-03-01T13:42:31;3.35;;;1.30;;
29168;SDS011;16219;42.864;23.360;2023-03-01T13:45:03;0.63;;;0.63;;
29168;SDS011;16219;42.864;23.360;2023-03-01T13:47:42;2.25;;;1.08;;
29168;SDS011;16219;42.864;23.360;2023-03-01T13:50:16;0.82;;;0.82;;
29168;SDS011;16219;42.864;23.360;2023-03-01T13:52:48;2.65;;;0.73;;
29168;SDS011;16219;42.864;23.360;2023-03-01T13:55:21;0.43;;;0.35;;
29168;SDS011;16219;42.864;23.360;2023-03-01T13:57:55;0.80;;;0.80;;
29168;SDS011;16219;42.864;23.360;2023-03-01T14:00:28;1.63;;;1.30;;
29168;SDS011;16219;42.864;23.360;2023-03-01T14:03:05;1.08;;;1.02;;
29168;SDS011;16219;42.864;23.360;2023-03-01T14:05:37;0.63;;;0.63;;
29168;SDS011;16219;42.864;23.360;2023-03-01T14:08:13;0.77;;;0.77;;
29168;SDS011;16219;42.864;23.360;2023-03-01T14:10:53;0.40;;;0.40;;
29168;SDS011;16219;42.864;23.360;2023-03-01T14:13:32;1.27;;;0.85;;
29168;SDS011;16219;42.864;23.360;2023-03-01T14:18:47;1.48;;;1.38;;
29168;SDS011;16219;42.864;23.360;2023-03-01T14:21:25;0.75;;;0.75;;
29168;SDS011;16219;42.864;23.360;2023-03-01T14:23:52;1.10;;;1.02;;
29168;SDS011;16219;42.864;23.360;2023-03-01T14:26:20;15.93;;;1.10;;
29168;SDS011;16219;42.864;23.360;2023-03-01T14:28:50;0.40;;;0.40;;
29168;SDS011;16219;42.864;23.360;2023-03-01T14:31:37;0.85;;;0.85;;
29168;SDS011;16219;42.864;23.360;2023-03-01T14:34:16;3.85;;;1.05;;
29168;SDS011;16219;42.864;23.360;2023-03-01T14:36:46;0.90;;;0.90;;
29168;SDS011;16219;42.864;23.360;2023-03-01T14:39:17;1.95;;;1.13;;
29168;SDS011;16219;42.864;23.360;2023-03-01T14:41:46;2.10;;;1.25;;
29168;SDS011;16219;42.864;23.360;2023-03-01T14:44:19;2.08;;;1.63;;
29168;SDS011;16219;42.864;23.360;2023-03-01T14:46:51;2.97;;;1.48;;
29168;SDS011;16219;42.864;23.360;2023-03-01T14:49:21;1.27;;;1.17;;
29168;SDS011;16219;42.864;23.360;2023-03-01T14:51:52;5.75;;;1.33;;
29168;SDS011;16219;42.864;23.360;2023-03-01T14:54:24;1.17;;;1.17;;
29168;SDS011;16219;42.864;23.360;2023-03-01T14:56:54;1.00;;;1.00;;
29168;SDS011;16219;42.864;23.360;2023-03-01T14:59:27;0.98;;;0.98;;
29168;SDS011;16219;42.864;23.360;2023-03-01T15:01:56;1.67;;;1.27;;
29168;SDS011;16219;42.864;23.360;2023-03-01T15:04:26;1.50;;;1.40;;
29168;SDS011;16219;42.864;23.360;2023-03-01T15:06:55;1.42;;;1.33;;
29168;SDS011;16219;42.864;23.360;2023-03-01T15:09:31;1.27;;;1.13;;
29168;SDS011;16219;42.864;23.360;2023-03-01T15:12:01;1.63;;;1.25;;
29168;SDS011;16219;42.864;23.360;2023-03-01T15:15:23;1.63;;;1.48;;
29168;SDS011;16219;42.864;23.360;2023-03-01T15:17:59;0.80;;;0.80;;
29168;SDS011;16219;42.864;23.360;2023-03-01T15:20:28;0.80;;;0.80;;
29168;SDS011;16219;42.864;23.360;2023-03-01T15:23:00;1.73;;;1.40;;
29168;SDS011;16219;42.864;23.360;2023-03-01T15:25:29;1.58;;;1.27;;
29168;SDS011;16219;42.864;23.360;2023-03-01T15:27:58;1.35;;;1.08;;
29168;SDS011;16219;42.864;23.360;2023-03-01T15:30:30;4.53;;;2.17;;
29168;SDS011;16219;42.864;23.360;2023-03-01T15:35:58;1.00;;;1.00;;
29168;SDS011;16219;42.864;23.360;2023-03-01T15:38:31;2.72;;;1.50;;
29168;SDS011;16219;42.864;23.360;2023-03-01T15:41:01;0.95;;;0.95;;
29168;SDS011;16219;42.864;23.360;2023-03-01T15:43:37;1.63;;;1.20;;
29168;SDS011;16219;42.864;23.360;2023-03-01T15:49:00;1.63;;;1.42;;
29168;SDS011;16219;42.864;23.360;2023-03-01T15:51:30;1.33;;;1.20;;
29168;SDS011;16219;42.864;23.360;2023-03-01T15:54:03;2.78;;;1.73;;
29168;SDS011;16219;42.864;23.360;2023-03-01T15:56:32;2.35;;;1.33;;
29168;SDS011;16219;42.864;23.360;2023-03-01T15:59:01;3.42;;;1.88;;
29168;SDS011;16219;42.864;23.360;2023-03-01T16:01:31;1.70;;;1.52;;
29168;SDS011;16219;42.864;23.360;2023-03-01T16:04:00;1.00;;;1.00;;
29168;SDS011;16219;42.864;23.360;2023-03-01T16:06:27;2.70;;;2.10;;
29168;SDS011;16219;42.864;23.360;2023-03-01T16:08:55;3.00;;;2.05;;
29168;SDS011;16219;42.864;23.360;2023-03-01T16:11:22;0.90;;;0.90;;
29168;SDS011;16219;42.864;23.360;2023-03-01T16:13:49;1.70;;;1.60;;
29168;SDS011;16219;42.864;23.360;2023-03-01T16:16:17;7.78;;;1.85;;
29168;SDS011;16219;42.864;23.360;2023-03-01T16:18:46;2.63;;;1.55;;
29168;SDS011;16219;42.864;23.360;2023-03-01T16:21:14;2.40;;;1.88;;
29168;SDS011;16219;42.864;23.360;2023-03-01T16:23:43;3.05;;;2.40;;
29168;SDS011;16219;42.864;23.360;2023-03-01T16:26:11;4.47;;;1.90;;
29168;SDS011;16219;42.864;23.360;2023-03-01T16:28:39;5.47;;;2.75;;
29168;SDS011;16219;42.864;23.360;2023-03-01T16:31:07;2.30;;;2.03;;
29168;SDS011;16219;42.864;23.360;2023-03-01T16:33:35;1.05;;;1.00;;
29168;SDS011;16219;42.864;23.360;2023-03-01T16:36:07;10.90;;;3.10;;
29168;SDS011;16219;42.864;23.360;2023-03-01T16:38:36;2.77;;;1.90;;
29168;SDS011;16219;42.864;23.360;2023-03-01T16:41:04;1.73;;;1.63;;
29168;SDS011;16219;42.864;23.360;2023-03-01T16:43:33;1.35;;;1.25;;
29168;SDS011;16219;42.864;23.360;2023-03-01T16:46:00;2.33;;;2.00;;
29168;SDS011;16219;42.864;23.360;2023-03-01T16:48:29;4.03;;;2.30;;
29168;SDS011;16219;42.864;23.360;2023-03-01T16:50:58;3.00;;;1.73;;
29168;SDS011;16219;42.864;23.360;2023-03-01T16:53:28;4.10;;;2.08;;
29168;SDS011;16219;42.864;23.360;2023-03-01T16:55:56;2.67;;;1.55;;
29168;SDS011;16219;42.864;23.360;2023-03-01T16:58:24;3.78;;;1.77;;
29168;SDS011;16219;42.864;23.360;2023-03-01T17:00:51;2.35;;;1.80;;
29168;SDS011;16219;42.864;23.360;2023-03-01T17:03:20;4.53;;;2.88;;
29168;SDS011;16219;42.864;23.360;2023-03-01T17:05:47;5.00;;;2.75;;
29168;SDS011;16219;42.864;23.360;2023-03-01T17:08:15;4.18;;;2.60;;
29168;SDS011;16219;42.864;23.360;2023-03-01T17:10:45;1.52;;;1.48;;
29168;SDS011;16219;42.864;23.360;2023-03-01T17:13:13;3.30;;;2.22;;
29168;SDS011;16219;42.864;23.360;2023-03-01T17:15:41;9.48;;;3.30;;
29168;SDS011;16219;42.864;23.360;2023-03-01T17:18:09;3.63;;;2.95;;
29168;SDS011;16219;42.864;23.360;2023-03-01T17:20:36;6.97;;;2.50;;
29168;SDS011;16219;42.864;23.360;2023-03-01T17:23:04;2.28;;;2.05;;
29168;SDS011;16219;42.864;23.360;2023-03-01T17:25:32;2.78;;;2.47;;
29168;SDS011;16219;42.864;23.360;2023-03-01T17:28:01;2.05;;;1.92;;
29168;SDS011;16219;42.864;23.360;2023-03-01T17:30:28;4.20;;;3.10;;
29168;SDS011;16219;42.864;23.360;2023-03-01T17:32:56;1.77;;;1.65;;
29168;SDS011;16219;42.864;23.360;2023-03-01T17:35:24;4.97;;;1.98;;
29168;SDS011;16219;42.864;23.360;2023-03-01T17:37:51;2.22;;;2.05;;
29168;SDS011;16219;42.864;23.360;2023-03-01T17:40:19;3.38;;;2.47;;
29168;SDS011;16219;42.864;23.360;2023-03-01T17:42:46;4.15;;;2.25;;
29168;SDS011;16219;42.864;23.360;2023-03-01T17:45:15;2.97;;;2.70;;
29168;SDS011;16219;42.864;23.360;2023-03-01T17:47:43;2.83;;;2.40;;
29168;SDS011;16219;42.864;23.360;2023-03-01T17:50:11;4.82;;;2.75;;
29168;SDS011;16219;42.864;23.360;2023-03-01T17:52:39;3.47;;;1.73;;
29168;SDS011;16219;42.864;23.360;2023-03-01T17:55:07;2.63;;;1.95;;
29168;SDS011;16219;42.864;23.360;2023-03-01T17:57:37;3.17;;;2.30;;
29168;SDS011;16219;42.864;23.360;2023-03-01T18:00:06;2.13;;;1.92;;
29168;SDS011;16219;42.864;23.360;2023-03-01T18:05:08;1.55;;;1.40;;
29168;SDS011;16219;42.864;23.360;2023-03-01T18:07:36;5.05;;;2.75;;
29168;SDS011;16219;42.864;23.360;2023-03-01T18:10:04;2.60;;;2.15;;
29168;SDS011;16219;42.864;23.360;2023-03-01T18:12:32;1.92;;;1.60;;
29168;SDS011;16219;42.864;23.360;2023-03-01T18:15:00;2.05;;;1.77;;
29168;SDS011;16219;42.864;23.360;2023-03-01T18:17:27;7.18;;;2.65;;
29168;SDS011;16219;42.864;23.360;2023-03-01T18:19:56;2.17;;;1.98;;
29168;SDS011;16219;42.864;23.360;2023-03-01T18:22:24;1.90;;;1.73;;
29168;SDS011;16219;42.864;23.360;2023-03-01T18:24:52;2.20;;;2.10;;
29168;SDS011;16219;42.864;23.360;2023-03-01T18:27:20;3.28;;;2.30;;
29168;SDS011;16219;42.864;23.360;2023-03-01T18:29:48;9.95;;;3.10;;
29168;SDS011;16219;42.864;23.360;2023-03-01T18:32:16;12.07;;;3.65;;
29168;SDS011;16219;42.864;23.360;2023-03-01T18:34:44;4.18;;;2.75;;
29168;SDS011;16219;42.864;23.360;2023-03-01T18:37:14;7.80;;;4.25;;
29168;SDS011;16219;42.864;23.360;2023-03-01T18:39:42;6.20;;;3.15;;
29168;SDS011;16219;42.864;23.360;2023-03-01T18:42:10;2.83;;;2.53;;
29168;SDS011;16219;42.864;23.360;2023-03-01T18:44:39;2.65;;;2.45;;
29168;SDS011;16219;42.864;23.360;2023-03-01T18:47:06;5.10;;;2.75;;
29168;SDS011;16219;42.864;23.360;2023-03-01T18:49:34;2.17;;;1.98;;
29168;SDS011;16219;42.864;23.360;2023-03-01T18:52:02;2.45;;;2.17;;
29168;SDS011;16219;42.864;23.360;2023-03-01T18:54:31;2.42;;;2.22;;
29168;SDS011;16219;42.864;23.360;2023-03-01T18:57:00;4.03;;;2.47;;
29168;SDS011;16219;42.864;23.360;2023-03-01T18:59:28;2.50;;;2.17;;
29168;SDS011;16219;42.864;23.360;2023-03-01T19:01:56;1.80;;;1.52;;
29168;SDS011;16219;42.864;23.360;2023-03-01T19:04:23;3.38;;;2.20;;
29168;SDS011;16219;42.864;23.360;2023-03-01T19:06:52;3.28;;;2.25;;
29168;SDS011;16219;42.864;23.360;2023-03-01T19:09:19;2.95;;;2.15;;
29168;SDS011;16219;42.864;23.360;2023-03-01T19:11:49;1.63;;;1.25;;
29168;SDS011;16219;42.864;23.360;2023-03-01T19:14:16;1.67;;;1.52;;
29168;SDS011;16219;42.864;23.360;2023-03-01T19:16:44;7.00;;;2.63;;
29168;SDS011;16219;42.864;23.360;2023-03-01T19:21:53;5.70;;;3.42;;
29168;SDS011;16219;42.864;23.360;2023-03-01T19:24:21;3.53;;;2.72;;
29168;SDS011;16219;42.864;23.360;2023-03-01T19:26:50;3.15;;;2.28;;
29168;SDS011;16219;42.864;23.360;2023-03-01T19:29:20;4.22;;;2.78;;
29168;SDS011;16219;42.864;23.360;2023-03-01T19:31:47;3.78;;;2.75;;
29168;SDS011;16219;42.864;23.360;2023-03-01T19:34:15;1.13;;;1.02;;
29168;SDS011;16219;42.864;23.360;2023-03-01T19:36:43;3.17;;;2.80;;
29168;SDS011;16219;42.864;23.360;2023-03-01T19:39:12;5.43;;;2.90;;
29168;SDS011;16219;42.864;23.360;2023-03-01T19:41:40;2.90;;;2.67;;
29168;SDS011;16219;42.864;23.360;2023-03-01T19:44:10;6.38;;;3.55;;
29168;SDS011;16219;42.864;23.360;2023-03-01T19:46:40;3.05;;;2.03;;
29168;SDS011;16219;42.864;23.360;2023-03-01T19:49:08;8.55;;;2.80;;
29168;SDS011;16219;42.864;23.360;2023-03-01T19:51:36;7.32;;;3.40;;
29168;SDS011;16219;42.864;23.360;2023-03-01T19:54:04;2.00;;;1.90;;
29168;SDS011;16219;42.864;23.360;2023-03-01T19:56:33;8.23;;;2.72;;
29168;SDS011;16219;42.864;23.360;2023-03-01T19:59:01;4.10;;;2.08;;
29168;SDS011;16219;42.864;23.360;2023-03-01T20:01:31;3.97;;;2.42;;
29168;SDS011;16219;42.864;23.360;2023-03-01T20:03:59;5.63;;;2.35;;
29168;SDS011;16219;42.864;23.360;2023-03-01T20:06:27;2.53;;;2.13;;
29168;SDS011;16219;42.864;23.360;2023-03-01T20:08:55;3.38;;;2.47;;
29168;SDS011;16219;42.864;23.360;2023-03-01T20:11:23;3.53;;;2.88;;
29168;SDS011;16219;42.864;23.360;2023-03-01T20:13:51;2.55;;;2.35;;
29168;SDS011;16219;42.864;23.360;2023-03-01T20:16:19;3.75;;;1.98;;
29168;SDS011;16219;42.864;23.360;2023-03-01T20:18:50;2.97;;;1.85;;
29168;SDS011;16219;42.864;23.360;2023-03-01T20:21:18;1.85;;;1.75;;
29168;SDS011;16219;42.864;23.360;2023-03-01T20:23:45;7.35;;;2.65;;
29168;SDS011;16219;42.864;23.360;2023-03-01T20:26:13;2.70;;;2.20;;
29168;SDS011;16219;42.864;23.360;2023-03-01T20:28:44;3.60;;;1.80;;
29168;SDS011;16219;42.864;23.360;2023-03-01T20:31:13;2.83;;;2.23;;
29168;SDS011;16219;42.864;23.360;2023-03-01T20:33:42;2.22;;;2.08;;
29168;SDS011;16219;42.864;23.360;2023-03-01T20:36:11;2.40;;;2.10;;
29168;SDS011;16219;42.864;23.360;2023-03-01T20:38:39;5.95;;;2.45;;
29168;SDS011;16219;42.864;23.360;2023-03-01T20:41:07;7.82;;;1.77;;
29168;SDS011;16219;42.864;23.360;2023-03-01T20:43:35;2.25;;;1.73;;
29168;SDS011;16219;42.864;23.360;2023-03-01T20:46:04;2.47;;;2.22;;
29168;SDS011;16219;42.864;23.360;2023-03-01T20:48:32;2.17;;;1.98;;
29168;SDS011;16219;42.864;23.360;2023-03-01T20:51:03;6.55;;;2.67;;
29168;SDS011;16219;42.864;23.360;2023-03-01T20:53:33;7.38;;;3.72;;
29168;SDS011;16219;42.864;23.360;2023-03-01T20:56:01;7.97;;;3.28;;
29168;SDS011;16219;42.864;23.360;2023-03-01T20:58:29;6.00;;;2.55;;
29168;SDS011;16219;42.864;23.360;2023-03-01T21:00:58;2.38;;;2.15;;
29168;SDS011;16219;42.864;23.360;2023-03-01T21:03:26;8.45;;;2.20;;
29168;SDS011;16219;42.864;23.360;2023-03-01T21:05:54;5.47;;;2.42;;
29168;SDS011;16219;42.864;23.360;2023-03-01T21:08:22;3.22;;;2.28;;
29168;SDS011;16219;42.864;23.360;2023-03-01T21:10:52;3.03;;;2.17;;
29168;SDS011;16219;42.864;23.360;2023-03-01T21:13:22;1.77;;;1.67;;
29168;SDS011;16219;42.864;23.360;2023-03-01T21:15:53;2.35;;;2.08;;
29168;SDS011;16219;42.864;23.360;2023-03-01T21:18:22;3.85;;;2.45;;
29168;SDS011;16219;42.864;23.360;2023-03-01T21:20:56;1.88;;;1.67;;
29168;SDS011;16219;42.864;23.360;2023-03-01T21:23:25;1.83;;;1.73;;
29168;SDS011;16219;42.864;23.360;2023-03-01T21:26:00;6.57;;;2.65;;
29168;SDS011;16219;42.864;23.360;2023-03-01T21:28:29;6.38;;;2.53;;
29168;SDS011;16219;42.864;23.360;2023-03-01T21:31:01;1.63;;;1.50;;
29168;SDS011;16219;42.864;23.360;2023-03-01T21:33:30;1.83;;;1.73;;
29168;SDS011;16219;42.864;23.360;2023-03-01T21:35:58;3.15;;;2.25;;
29168;SDS011;16219;42.864;23.360;2023-03-01T21:38:28;1.92;;;1.67;;
29168;SDS011;16219;42.864;23.360;2023-03-01T21:41:03;1.20;;;1.10;;
29168;SDS011;16219;42.864;23.360;2023-03-01T21:43:31;2.13;;;1.92;;
29168;SDS011;16219;42.864;23.360;2023-03-01T21:46:01;2.13;;;1.88;;
29168;SDS011;16219;42.864;23.360;2023-03-01T21:48:28;3.08;;;1.85;;
29168;SDS011;16219;42.864;23.360;2023-03-01T21:50:57;2.42;;;1.85;;
29168;SDS011;16219;42.864;23.360;2023-03-01T21:58:44;11.35;;;3.42;;
29168;SDS011;16219;42.864;23.360;2023-03-01T22:01:12;5.05;;;2.58;;
29168;SDS011;16219;42.864;23.360;2023-03-01T22:03:41;3.10;;;2.45;;
29168;SDS011;16219;42.864;23.360;2023-03-01T22:06:13;2.00;;;1.83;;
29168;SDS011;16219;42.864;23.360;2023-03-01T22:08:44;4.53;;;3.03;;
29168;SDS011;16219;42.864;23.360;2023-03-01T22:11:13;3.20;;;2.38;;
29168;SDS011;16219;42.864;23.360;2023-03-01T22:13:43;1.88;;;1.77;;
29168;SDS011;16219;42.864;23.360;2023-03-01T22:16:12;1.80;;;1.33;;
29168;SDS011;16219;42.864;23.360;2023-03-01T22:18:39;1.50;;;1.33;;
29168;SDS011;16219;42.864;23.360;2023-03-01T22:21:06;3.95;;;1.75;;
29168;SDS011;16219;42.864;23.360;2023-03-01T22:23:36;1.80;;;1.63;;
29168;SDS011;16219;42.864;23.360;2023-03-01T22:26:04;1.90;;;1.55;;
29168;SDS011;16219;42.864;23.360;2023-03-01T22:28:33;2.50;;;2.03;;
29168;SDS011;16219;42.864;23.360;2023-03-01T22:31:03;1.38;;;1.35;;
29168;SDS011;16219;42.864;23.360;2023-03-01T22:33:31;3.05;;;1.80;;
29168;SDS011;16219;42.864;23.360;2023-03-01T22:35:59;4.20;;;2.15;;
29168;SDS011;16219;42.864;23.360;2023-03-01T22:38:26;3.58;;;2.35;;
29168;SDS011;16219;42.864;23.360;2023-03-01T22:40:54;3.70;;;3.08;;
29168;SDS011;16219;42.864;23.360;2023-03-01T23:10:24;3.70;;;1.90;;
29168;SDS011;16219;42.864;23.360;2023-03-01T23:12:52;3.22;;;2.38;;
29168;SDS011;16219;42.864;23.360;2023-03-01T23:15:20;1.70;;;1.60;;
29168;SDS011;16219;42.864;23.360;2023-03-01T23:17:48;4.25;;;2.05;;
29168;SDS011;16219;42.864;23.360;2023-03-01T23:20:15;5.30;;;2.72;;
29168;SDS011;16219;42.864;23.360;2023-03-01T23:22:43;1.85;;;1.75;;
29168;SDS011;16219;42.864;23.360;2023-03-01T23:25:11;2.58;;;2.38;;
29168;SDS011;16219;42.864;23.360;2023-03-01T23:27:40;1.73;;;1.58;;
29168;SDS011;16219;42.864;23.360;2023-03-01T23:30:08;3.95;;;2.08;;
